sensor_id;sensor_type;location;lat;lon;timestamp;P1;durP1;ratioP1;P2;durP2;ratioP2
12112;SDS011;6120;52.250;8.478;2022-12-18T00:01:27;38.28;;;15.05;;
12112;SDS011;6120;52.250;8.478;2022-12-18T00:03:54;31.25;;;14.30;;
12112;SDS011;6120;52.250;8.478;2022-12-18T00:06:25;34.95;;;14.75;;
12112;SDS011;6120;52.250;8.478;2022-12-18T00:08:54;30.58;;;13.35;;
12112;SDS011;6120;52.250;8.478;2022-12-18T00:11:22;28.60;;;12.55;;
12112;SDS011;6120;52.250;8.478;2022-12-18T00:13:50;29.52;;;13.48;;
12112;SDS011;6120;52.250;8.478;2022-12-18T00:16:19;31.35;;;13.27;;
12112;SDS011;6120;52.250;8.478;2022-12-18T00:18:47;38.20;;;15.02;;
12112;SDS011;6120;52.250;8.478;2022-12-18T00:23:42;32.00;;;13.00;;
12112;SDS011;6120;52.250;8.478;2022-12-18T00:26:20;30.15;;;12.80;;
12112;SDS011;6120;52.250;8.478;2022-12-18T00:28:50;27.77;;;13.05;;
12112;SDS011;6120;52.250;8.478;2022-12-18T00:31:19;29.40;;;12.07;;
12112;SDS011;6120;52.250;8.478;2022-12-18T00:33:46;32.20;;;12.65;;
12112;SDS011;6120;52.250;8.478;2022-12-18T00:36:21;35.45;;;13.75;;
12112;SDS011;6120;52.250;8.478;2022-12-18T00:38:49;32.13;;;13.52;;
12112;SDS011;6120;52.250;8.478;2022-12-18T00:41:16;33.30;;;12.57;;
12112;SDS011;6120;52.250;8.478;2022-12-18T00:44:03;31.50;;;13.23;;
12112;SDS011;6120;52.250;8.478;2022-12-18T00:46:30;28.92;;;12.88;;
12112;SDS011;6120;52.250;8.478;2022-12-18T00:48:56;29.95;;;13.73;;
12112;SDS011;6120;52.250;8.478;2022-12-18T00:51:23;30.92;;;12.60;;
12112;SDS011;6120;52.250;8.478;2022-12-18T00:53:51;29.15;;;12.60;;
12112;SDS011;6120;52.250;8.478;2022-12-18T00:56:21;25.52;;;11.43;;
12112;SDS011;6120;52.250;8.478;2022-12-18T00:58:48;27.58;;;12.15;;
12112;SDS011;6120;52.250;8.478;2022-12-18T01:01:15;27.20;;;12.38;;
12112;SDS011;6120;52.250;8.478;2022-12-18T01:03:42;27.38;;;12.38;;
12112;SDS011;6120;52.250;8.478;2022-12-18T01:06:09;31.50;;;12.27;;
12112;SDS011;6120;52.250;8.478;2022-12-18T01:08:38;29.20;;;12.23;;
12112;SDS011;6120;52.250;8.478;2022-12-18T01:11:08;22.02;;;11.77;;
12112;SDS011;6120;52.250;8.478;2022-12-18T01:13:37;28.48;;;12.55;;
12112;SDS011;6120;52.250;8.478;2022-12-18T01:16:05;28.85;;;11.65;;
12112;SDS011;6120;52.250;8.478;2022-12-18T01:18:32;28.88;;;11.80;;
12112;SDS011;6120;52.250;8.478;2022-12-18T01:20:58;27.27;;;11.88;;
12112;SDS011;6120;52.250;8.478;2022-12-18T01:23:28;34.63;;;12.88;;
12112;SDS011;6120;52.250;8.478;2022-12-18T01:25:55;27.65;;;12.18;;
12112;SDS011;6120;52.250;8.478;2022-12-18T01:28:21;29.95;;;12.65;;
12112;SDS011;6120;52.250;8.478;2022-12-18T01:30:48;27.30;;;11.82;;
12112;SDS011;6120;52.250;8.478;2022-12-18T01:33:14;27.70;;;12.13;;
12112;SDS011;6120;52.250;8.478;2022-12-18T01:35:41;31.45;;;13.00;;
12112;SDS011;6120;52.250;8.478;2022-12-18T01:38:09;28.27;;;11.52;;
12112;SDS011;6120;52.250;8.478;2022-12-18T01:40:36;32.35;;;12.35;;
12112;SDS011;6120;52.250;8.478;2022-12-18T01:43:03;30.13;;;12.32;;
12112;SDS011;6120;52.250;8.478;2022-12-18T01:45:30;34.10;;;12.65;;
12112;SDS011;6120;52.250;8.478;2022-12-18T01:48:03;29.67;;;11.63;;
12112;SDS011;6120;52.250;8.478;2022-12-18T01:50:40;27.33;;;11.82;;
12112;SDS011;6120;52.250;8.478;2022-12-18T01:53:13;25.95;;;11.88;;
12112;SDS011;6120;52.250;8.478;2022-12-18T01:55:55;29.60;;;11.85;;
12112;SDS011;6120;52.250;8.478;2022-12-18T01:58:24;31.65;;;12.23;;
12112;SDS011;6120;52.250;8.478;2022-12-18T02:00:56;27.00;;;11.27;;
12112;SDS011;6120;52.250;8.478;2022-12-18T02:03:23;33.05;;;13.35;;
12112;SDS011;6120;52.250;8.478;2022-12-18T02:08:33;31.75;;;13.18;;
12112;SDS011;6120;52.250;8.478;2022-12-18T02:11:08;30.65;;;12.68;;
12112;SDS011;6120;52.250;8.478;2022-12-18T02:13:57;26.40;;;12.18;;
12112;SDS011;6120;52.250;8.478;2022-12-18T02:16:39;27.80;;;11.45;;
12112;SDS011;6120;52.250;8.478;2022-12-18T02:19:37;24.65;;;11.32;;
12112;SDS011;6120;52.250;8.478;2022-12-18T02:27:17;26.10;;;11.20;;
12112;SDS011;6120;52.250;8.478;2022-12-18T02:29:51;23.35;;;11.10;;
12112;SDS011;6120;52.250;8.478;2022-12-18T02:32:25;23.45;;;10.63;;
12112;SDS011;6120;52.250;8.478;2022-12-18T02:34:53;26.88;;;10.63;;
12112;SDS011;6120;52.250;8.478;2022-12-18T02:37:22;29.13;;;10.82;;
12112;SDS011;6120;52.250;8.478;2022-12-18T02:39:49;26.15;;;11.48;;
12112;SDS011;6120;52.250;8.478;2022-12-18T02:44:45;24.02;;;9.55;;
12112;SDS011;6120;52.250;8.478;2022-12-18T02:47:14;22.38;;;10.63;;
12112;SDS011;6120;52.250;8.478;2022-12-18T02:50:02;25.25;;;11.45;;
12112;SDS011;6120;52.250;8.478;2022-12-18T03:00:28;23.27;;;10.68;;
12112;SDS011;6120;52.250;8.478;2022-12-18T03:03:18;26.25;;;9.45;;
12112;SDS011;6120;52.250;8.478;2022-12-18T03:05:55;24.08;;;9.73;;
12112;SDS011;6120;52.250;8.478;2022-12-18T03:08:30;23.40;;;9.98;;
12112;SDS011;6120;52.250;8.478;2022-12-18T03:11:04;26.92;;;9.95;;
12112;SDS011;6120;52.250;8.478;2022-12-18T03:13:33;21.02;;;8.90;;
12112;SDS011;6120;52.250;8.478;2022-12-18T03:16:03;23.35;;;10.65;;
12112;SDS011;6120;52.250;8.478;2022-12-18T03:18:54;27.05;;;10.40;;
12112;SDS011;6120;52.250;8.478;2022-12-18T03:21:26;23.90;;;9.65;;
12112;SDS011;6120;52.250;8.478;2022-12-18T03:23:56;24.30;;;9.85;;
12112;SDS011;6120;52.250;8.478;2022-12-18T03:26:23;23.45;;;9.52;;
12112;SDS011;6120;52.250;8.478;2022-12-18T03:28:53;22.40;;;9.80;;
12112;SDS011;6120;52.250;8.478;2022-12-18T03:31:23;24.98;;;9.60;;
12112;SDS011;6120;52.250;8.478;2022-12-18T03:34:00;26.48;;;11.15;;
12112;SDS011;6120;52.250;8.478;2022-12-18T03:36:31;28.60;;;10.55;;
12112;SDS011;6120;52.250;8.478;2022-12-18T03:38:58;25.00;;;10.27;;
12112;SDS011;6120;52.250;8.478;2022-12-18T03:41:32;24.73;;;10.27;;
12112;SDS011;6120;52.250;8.478;2022-12-18T03:44:26;25.38;;;10.00;;
12112;SDS011;6120;52.250;8.478;2022-12-18T03:47:07;20.45;;;9.15;;
12112;SDS011;6120;52.250;8.478;2022-12-18T03:49:56;23.98;;;8.93;;
12112;SDS011;6120;52.250;8.478;2022-12-18T03:55:05;23.92;;;9.50;;
12112;SDS011;6120;52.250;8.478;2022-12-18T03:57:33;29.85;;;10.65;;
12112;SDS011;6120;52.250;8.478;2022-12-18T04:00:01;23.02;;;10.38;;
12112;SDS011;6120;52.250;8.478;2022-12-18T04:02:31;23.25;;;9.80;;
12112;SDS011;6120;52.250;8.478;2022-12-18T04:04:59;21.73;;;9.23;;
12112;SDS011;6120;52.250;8.478;2022-12-18T04:07:28;24.35;;;10.55;;
12112;SDS011;6120;52.250;8.478;2022-12-18T04:09:55;20.88;;;10.23;;
12112;SDS011;6120;52.250;8.478;2022-12-18T04:14:52;23.13;;;8.60;;
12112;SDS011;6120;52.250;8.478;2022-12-18T04:17:19;22.13;;;9.13;;
12112;SDS011;6120;52.250;8.478;2022-12-18T04:19:46;22.13;;;8.77;;
12112;SDS011;6120;52.250;8.478;2022-12-18T04:22:12;23.50;;;9.65;;
12112;SDS011;6120;52.250;8.478;2022-12-18T04:24:39;18.40;;;9.15;;
12112;SDS011;6120;52.250;8.478;2022-12-18T04:27:06;23.55;;;9.48;;
12112;SDS011;6120;52.250;8.478;2022-12-18T04:29:32;21.10;;;9.10;;
12112;SDS011;6120;52.250;8.478;2022-12-18T04:31:59;24.20;;;10.25;;
12112;SDS011;6120;52.250;8.478;2022-12-18T04:34:26;20.15;;;9.60;;
12112;SDS011;6120;52.250;8.478;2022-12-18T04:36:52;20.48;;;8.55;;
12112;SDS011;6120;52.250;8.478;2022-12-18T04:39:19;20.48;;;9.18;;
12112;SDS011;6120;52.250;8.478;2022-12-18T04:41:46;22.33;;;9.73;;
12112;SDS011;6120;52.250;8.478;2022-12-18T04:44:12;19.67;;;8.35;;
12112;SDS011;6120;52.250;8.478;2022-12-18T04:46:39;22.02;;;8.63;;
12112;SDS011;6120;52.250;8.478;2022-12-18T04:49:05;22.33;;;8.85;;
12112;SDS011;6120;52.250;8.478;2022-12-18T04:51:32;21.00;;;9.23;;
12112;SDS011;6120;52.250;8.478;2022-12-18T04:53:59;17.65;;;8.45;;
12112;SDS011;6120;52.250;8.478;2022-12-18T04:56:25;23.13;;;8.88;;
12112;SDS011;6120;52.250;8.478;2022-12-18T04:58:52;23.90;;;9.27;;
12112;SDS011;6120;52.250;8.478;2022-12-18T05:01:18;19.55;;;8.13;;
12112;SDS011;6120;52.250;8.478;2022-12-18T05:03:45;17.67;;;7.77;;
12112;SDS011;6120;52.250;8.478;2022-12-18T05:06:12;19.75;;;8.68;;
12112;SDS011;6120;52.250;8.478;2022-12-18T05:08:39;24.58;;;10.23;;
12112;SDS011;6120;52.250;8.478;2022-12-18T05:11:10;21.20;;;9.45;;
12112;SDS011;6120;52.250;8.478;2022-12-18T05:13:38;21.58;;;9.30;;
12112;SDS011;6120;52.250;8.478;2022-12-18T05:16:06;23.90;;;9.43;;
12112;SDS011;6120;52.250;8.478;2022-12-18T05:18:33;25.58;;;10.20;;
12112;SDS011;6120;52.250;8.478;2022-12-18T05:21:00;21.73;;;8.90;;
12112;SDS011;6120;52.250;8.478;2022-12-18T05:23:27;18.42;;;8.77;;
12112;SDS011;6120;52.250;8.478;2022-12-18T05:25:54;23.20;;;9.57;;
12112;SDS011;6120;52.250;8.478;2022-12-18T05:28:22;23.05;;;9.35;;
12112;SDS011;6120;52.250;8.478;2022-12-18T05:30:50;24.75;;;9.63;;
12112;SDS011;6120;52.250;8.478;2022-12-18T05:33:21;28.90;;;10.55;;
12112;SDS011;6120;52.250;8.478;2022-12-18T05:35:52;25.80;;;9.98;;
12112;SDS011;6120;52.250;8.478;2022-12-18T05:38:21;23.30;;;10.35;;
12112;SDS011;6120;52.250;8.478;2022-12-18T05:40:49;22.15;;;9.63;;
12112;SDS011;6120;52.250;8.478;2022-12-18T05:43:16;22.45;;;9.20;;
12112;SDS011;6120;52.250;8.478;2022-12-18T05:45:46;27.52;;;10.38;;
12112;SDS011;6120;52.250;8.478;2022-12-18T05:48:14;22.58;;;9.23;;
12112;SDS011;6120;52.250;8.478;2022-12-18T05:50:42;30.80;;;10.95;;
12112;SDS011;6120;52.250;8.478;2022-12-18T05:53:12;29.65;;;11.10;;
12112;SDS011;6120;52.250;8.478;2022-12-18T05:55:40;24.42;;;10.88;;
12112;SDS011;6120;52.250;8.478;2022-12-18T05:58:08;27.00;;;11.20;;
12112;SDS011;6120;52.250;8.478;2022-12-18T06:00:36;31.77;;;11.30;;
12112;SDS011;6120;52.250;8.478;2022-12-18T06:03:06;27.45;;;11.23;;
12112;SDS011;6120;52.250;8.478;2022-12-18T06:08:01;23.25;;;9.77;;
12112;SDS011;6120;52.250;8.478;2022-12-18T06:10:27;21.98;;;9.63;;
12112;SDS011;6120;52.250;8.478;2022-12-18T06:12:54;23.75;;;10.57;;
12112;SDS011;6120;52.250;8.478;2022-12-18T06:15:21;21.77;;;9.57;;
12112;SDS011;6120;52.250;8.478;2022-12-18T06:17:47;22.88;;;10.18;;
12112;SDS011;6120;52.250;8.478;2022-12-18T06:20:14;22.23;;;9.43;;
12112;SDS011;6120;52.250;8.478;2022-12-18T06:22:40;24.65;;;10.27;;
12112;SDS011;6120;52.250;8.478;2022-12-18T06:25:07;20.77;;;8.93;;
12112;SDS011;6120;52.250;8.478;2022-12-18T06:27:34;22.77;;;8.60;;
12112;SDS011;6120;52.250;8.478;2022-12-18T06:30:01;22.35;;;8.93;;
12112;SDS011;6120;52.250;8.478;2022-12-18T06:32:28;22.20;;;9.20;;
12112;SDS011;6120;52.250;8.478;2022-12-18T06:34:55;26.42;;;10.70;;
12112;SDS011;6120;52.250;8.478;2022-12-18T06:37:22;26.48;;;9.23;;
12112;SDS011;6120;52.250;8.478;2022-12-18T06:39:52;26.08;;;9.95;;
12112;SDS011;6120;52.250;8.478;2022-12-18T06:42:23;27.55;;;10.13;;
12112;SDS011;6120;52.250;8.478;2022-12-18T06:44:50;25.73;;;10.77;;
12112;SDS011;6120;52.250;8.478;2022-12-18T06:47:17;28.83;;;10.13;;
12112;SDS011;6120;52.250;8.478;2022-12-18T06:49:44;30.40;;;9.65;;
12112;SDS011;6120;52.250;8.478;2022-12-18T06:52:10;27.27;;;9.90;;
12112;SDS011;6120;52.250;8.478;2022-12-18T06:54:38;26.65;;;10.30;;
12112;SDS011;6120;52.250;8.478;2022-12-18T06:57:05;25.27;;;9.93;;
12112;SDS011;6120;52.250;8.478;2022-12-18T06:59:31;27.33;;;9.77;;
12112;SDS011;6120;52.250;8.478;2022-12-18T07:01:58;36.38;;;11.35;;
12112;SDS011;6120;52.250;8.478;2022-12-18T07:04:29;29.20;;;10.88;;
12112;SDS011;6120;52.250;8.478;2022-12-18T07:09:29;27.05;;;9.82;;
12112;SDS011;6120;52.250;8.478;2022-12-18T07:11:56;22.77;;;9.57;;
12112;SDS011;6120;52.250;8.478;2022-12-18T07:14:23;22.70;;;10.30;;
12112;SDS011;6120;52.250;8.478;2022-12-18T07:16:49;27.35;;;10.10;;
12112;SDS011;6120;52.250;8.478;2022-12-18T07:19:16;25.15;;;9.98;;
12112;SDS011;6120;52.250;8.478;2022-12-18T07:21:43;23.15;;;9.05;;
12112;SDS011;6120;52.250;8.478;2022-12-18T07:24:09;21.20;;;9.10;;
12112;SDS011;6120;52.250;8.478;2022-12-18T07:26:36;18.08;;;8.77;;
12112;SDS011;6120;52.250;8.478;2022-12-18T07:29:02;19.05;;;8.23;;
12112;SDS011;6120;52.250;8.478;2022-12-18T07:31:29;22.23;;;9.02;;
12112;SDS011;6120;52.250;8.478;2022-12-18T07:33:56;19.50;;;8.45;;
12112;SDS011;6120;52.250;8.478;2022-12-18T07:36:23;18.98;;;8.77;;
12112;SDS011;6120;52.250;8.478;2022-12-18T07:38:49;18.75;;;7.97;;
12112;SDS011;6120;52.250;8.478;2022-12-18T07:41:16;20.90;;;8.82;;
12112;SDS011;6120;52.250;8.478;2022-12-18T07:43:43;23.15;;;9.32;;
12112;SDS011;6120;52.250;8.478;2022-12-18T07:46:10;17.55;;;7.97;;
12112;SDS011;6120;52.250;8.478;2022-12-18T07:48:39;20.05;;;8.20;;
12112;SDS011;6120;52.250;8.478;2022-12-18T07:51:06;21.00;;;8.77;;
12112;SDS011;6120;52.250;8.478;2022-12-18T07:53:34;20.27;;;8.15;;
12112;SDS011;6120;52.250;8.478;2022-12-18T07:56:03;18.70;;;8.18;;
12112;SDS011;6120;52.250;8.478;2022-12-18T07:58:54;15.90;;;6.53;;
12112;SDS011;6120;52.250;8.478;2022-12-18T08:01:21;18.85;;;8.07;;
12112;SDS011;6120;52.250;8.478;2022-12-18T08:03:47;17.02;;;7.88;;
12112;SDS011;6120;52.250;8.478;2022-12-18T08:06:17;18.77;;;8.73;;
12112;SDS011;6120;52.250;8.478;2022-12-18T08:08:44;18.02;;;8.18;;
12112;SDS011;6120;52.250;8.478;2022-12-18T08:11:10;22.52;;;9.48;;
12112;SDS011;6120;52.250;8.478;2022-12-18T08:13:37;29.02;;;12.60;;
12112;SDS011;6120;52.250;8.478;2022-12-18T08:16:05;22.30;;;10.37;;
12112;SDS011;6120;52.250;8.478;2022-12-18T08:18:33;21.50;;;9.18;;
12112;SDS011;6120;52.250;8.478;2022-12-18T08:21:34;19.33;;;9.00;;
12112;SDS011;6120;52.250;8.478;2022-12-18T08:23:56;20.85;;;8.63;;
12112;SDS011;6120;52.250;8.478;2022-12-18T08:26:25;20.25;;;8.68;;
12112;SDS011;6120;52.250;8.478;2022-12-18T08:28:54;15.70;;;8.32;;
12112;SDS011;6120;52.250;8.478;2022-12-18T08:31:22;20.17;;;8.25;;
12112;SDS011;6120;52.250;8.478;2022-12-18T08:33:50;21.00;;;9.23;;
12112;SDS011;6120;52.250;8.478;2022-12-18T08:36:17;21.83;;;9.20;;
12112;SDS011;6120;52.250;8.478;2022-12-18T08:38:45;21.20;;;8.55;;
12112;SDS011;6120;52.250;8.478;2022-12-18T08:41:12;19.35;;;8.20;;
12112;SDS011;6120;52.250;8.478;2022-12-18T08:43:40;21.63;;;9.45;;
12112;SDS011;6120;52.250;8.478;2022-12-18T08:46:26;19.10;;;8.35;;
12112;SDS011;6120;52.250;8.478;2022-12-18T08:48:54;18.90;;;9.07;;
12112;SDS011;6120;52.250;8.478;2022-12-18T08:51:22;22.73;;;9.13;;
12112;SDS011;6120;52.250;8.478;2022-12-18T08:53:48;17.92;;;9.82;;
12112;SDS011;6120;52.250;8.478;2022-12-18T08:56:15;20.63;;;9.32;;
12112;SDS011;6120;52.250;8.478;2022-12-18T08:58:42;21.50;;;9.33;;
12112;SDS011;6120;52.250;8.478;2022-12-18T09:01:10;22.52;;;9.68;;
12112;SDS011;6120;52.250;8.478;2022-12-18T09:03:38;19.38;;;9.38;;
12112;SDS011;6120;52.250;8.478;2022-12-18T09:06:06;19.38;;;8.65;;
12112;SDS011;6120;52.250;8.478;2022-12-18T09:08:35;20.95;;;9.13;;
12112;SDS011;6120;52.250;8.478;2022-12-18T09:11:09;19.27;;;9.85;;
12112;SDS011;6120;52.250;8.478;2022-12-18T09:13:38;21.10;;;9.05;;
12112;SDS011;6120;52.250;8.478;2022-12-18T09:16:05;21.65;;;9.40;;
12112;SDS011;6120;52.250;8.478;2022-12-18T09:18:32;20.33;;;9.70;;
12112;SDS011;6120;52.250;8.478;2022-12-18T09:20:58;25.80;;;9.57;;
12112;SDS011;6120;52.250;8.478;2022-12-18T09:23:25;18.42;;;9.18;;
12112;SDS011;6120;52.250;8.478;2022-12-18T09:25:51;21.05;;;9.07;;
12112;SDS011;6120;52.250;8.478;2022-12-18T09:28:18;23.08;;;9.77;;
12112;SDS011;6120;52.250;8.478;2022-12-18T09:30:46;23.58;;;10.13;;
12112;SDS011;6120;52.250;8.478;2022-12-18T09:33:15;20.77;;;10.35;;
12112;SDS011;6120;52.250;8.478;2022-12-18T09:35:43;22.80;;;10.80;;
12112;SDS011;6120;52.250;8.478;2022-12-18T09:38:12;22.55;;;10.75;;
12112;SDS011;6120;52.250;8.478;2022-12-18T09:40:47;23.65;;;10.45;;
12112;SDS011;6120;52.250;8.478;2022-12-18T09:43:24;22.48;;;10.70;;
12112;SDS011;6120;52.250;8.478;2022-12-18T09:45:59;19.90;;;9.98;;
12112;SDS011;6120;52.250;8.478;2022-12-18T09:48:31;21.13;;;10.23;;
12112;SDS011;6120;52.250;8.478;2022-12-18T09:51:02;24.45;;;10.38;;
12112;SDS011;6120;52.250;8.478;2022-12-18T09:53:33;27.02;;;10.43;;
12112;SDS011;6120;52.250;8.478;2022-12-18T09:56:01;24.30;;;10.80;;
12112;SDS011;6120;52.250;8.478;2022-12-18T09:58:31;20.73;;;9.68;;
12112;SDS011;6120;52.250;8.478;2022-12-18T10:01:06;22.38;;;9.35;;
12112;SDS011;6120;52.250;8.478;2022-12-18T10:04:05;27.15;;;9.57;;
12112;SDS011;6120;52.250;8.478;2022-12-18T10:06:54;18.63;;;9.52;;
12112;SDS011;6120;52.250;8.478;2022-12-18T10:09:37;18.35;;;8.88;;
12112;SDS011;6120;52.250;8.478;2022-12-18T10:25:25;20.98;;;9.02;;
12112;SDS011;6120;52.250;8.478;2022-12-18T10:28:14;24.63;;;8.88;;
12112;SDS011;6120;52.250;8.478;2022-12-18T10:30:42;17.92;;;8.95;;
12112;SDS011;6120;52.250;8.478;2022-12-18T10:33:11;17.15;;;9.05;;
12112;SDS011;6120;52.250;8.478;2022-12-18T10:35:42;19.13;;;9.18;;
12112;SDS011;6120;52.250;8.478;2022-12-18T10:41:04;23.90;;;9.00;;
12112;SDS011;6120;52.250;8.478;2022-12-18T10:43:46;17.45;;;8.30;;
12112;SDS011;6120;52.250;8.478;2022-12-18T10:46:17;19.60;;;9.40;;
12112;SDS011;6120;52.250;8.478;2022-12-18T10:51:25;16.90;;;8.23;;
12112;SDS011;6120;52.250;8.478;2022-12-18T10:53:58;19.30;;;7.95;;
12112;SDS011;6120;52.250;8.478;2022-12-18T10:56:27;16.92;;;8.32;;
12112;SDS011;6120;52.250;8.478;2022-12-18T10:58:56;21.02;;;9.50;;
12112;SDS011;6120;52.250;8.478;2022-12-18T11:01:52;16.25;;;8.55;;
12112;SDS011;6120;52.250;8.478;2022-12-18T11:04:32;16.05;;;8.80;;
12112;SDS011;6120;52.250;8.478;2022-12-18T11:07:04;17.65;;;8.55;;
12112;SDS011;6120;52.250;8.478;2022-12-18T11:09:35;18.95;;;8.93;;
12112;SDS011;6120;52.250;8.478;2022-12-18T11:12:16;18.98;;;8.52;;
12112;SDS011;6120;52.250;8.478;2022-12-18T11:14:48;15.55;;;7.75;;
12112;SDS011;6120;52.250;8.478;2022-12-18T11:17:21;17.40;;;8.57;;
12112;SDS011;6120;52.250;8.478;2022-12-18T11:19:56;18.85;;;9.07;;
12112;SDS011;6120;52.250;8.478;2022-12-18T11:22:27;17.52;;;8.35;;
12112;SDS011;6120;52.250;8.478;2022-12-18T11:24:59;16.95;;;6.70;;
12112;SDS011;6120;52.250;8.478;2022-12-18T11:27:49;15.75;;;7.63;;
12112;SDS011;6120;52.250;8.478;2022-12-18T11:30:23;12.95;;;6.80;;
12112;SDS011;6120;52.250;8.478;2022-12-18T11:38:22;14.45;;;6.95;;
12112;SDS011;6120;52.250;8.478;2022-12-18T11:46:15;14.25;;;7.40;;
12112;SDS011;6120;52.250;8.478;2022-12-18T11:54:30;15.18;;;7.35;;
12112;SDS011;6120;52.250;8.478;2022-12-18T12:00:04;16.27;;;7.28;;
12112;SDS011;6120;52.250;8.478;2022-12-18T12:16:10;14.07;;;5.88;;
12112;SDS011;6120;52.250;8.478;2022-12-18T12:21:40;11.63;;;5.50;;
12112;SDS011;6120;52.250;8.478;2022-12-18T12:35:08;12.20;;;5.25;;
12112;SDS011;6120;52.250;8.478;2022-12-18T12:40:07;11.85;;;5.25;;
12112;SDS011;6120;52.250;8.478;2022-12-18T12:43:03;9.25;;;4.90;;
12112;SDS011;6120;52.250;8.478;2022-12-18T12:48:36;9.75;;;5.10;;
12112;SDS011;6120;52.250;8.478;2022-12-18T12:53:56;11.23;;;5.15;;
12112;SDS011;6120;52.250;8.478;2022-12-18T12:56:24;13.60;;;5.25;;
12112;SDS011;6120;52.250;8.478;2022-12-18T13:07:10;8.82;;;4.68;;
12112;SDS011;6120;52.250;8.478;2022-12-18T13:20:40;13.05;;;5.22;;
12112;SDS011;6120;52.250;8.478;2022-12-18T13:25:59;13.55;;;5.65;;
12112;SDS011;6120;52.250;8.478;2022-12-18T13:31:14;10.27;;;5.13;;
12112;SDS011;6120;52.250;8.478;2022-12-18T13:36:53;10.85;;;5.05;;
12112;SDS011;6120;52.250;8.478;2022-12-18T13:39:31;11.10;;;4.97;;
12112;SDS011;6120;52.250;8.478;2022-12-18T13:44:34;9.73;;;4.68;;
12112;SDS011;6120;52.250;8.478;2022-12-18T13:47:25;11.05;;;4.45;;
12112;SDS011;6120;52.250;8.478;2022-12-18T13:50:00;8.57;;;4.55;;
12112;SDS011;6120;52.250;8.478;2022-12-18T13:52:28;11.55;;;4.72;;
12112;SDS011;6120;52.250;8.478;2022-12-18T13:55:00;8.93;;;4.43;;
12112;SDS011;6120;52.250;8.478;2022-12-18T13:59:58;10.40;;;4.93;;
12112;SDS011;6120;52.250;8.478;2022-12-18T14:02:26;10.57;;;4.70;;
12112;SDS011;6120;52.250;8.478;2022-12-18T14:04:54;13.18;;;5.45;;
12112;SDS011;6120;52.250;8.478;2022-12-18T14:07:22;11.23;;;4.63;;
12112;SDS011;6120;52.250;8.478;2022-12-18T14:09:52;10.55;;;4.60;;
12112;SDS011;6120;52.250;8.478;2022-12-18T14:12:45;9.10;;;4.50;;
12112;SDS011;6120;52.250;8.478;2022-12-18T14:15:50;9.90;;;5.00;;
12112;SDS011;6120;52.250;8.478;2022-12-18T14:20:57;10.02;;;4.65;;
12112;SDS011;6120;52.250;8.478;2022-12-18T14:25:59;11.93;;;4.57;;
12112;SDS011;6120;52.250;8.478;2022-12-18T14:28:44;9.15;;;4.63;;
12112;SDS011;6120;52.250;8.478;2022-12-18T14:31:20;8.00;;;4.18;;
12112;SDS011;6120;52.250;8.478;2022-12-18T14:33:48;11.05;;;4.97;;
12112;SDS011;6120;52.250;8.478;2022-12-18T14:36:17;9.13;;;4.50;;
12112;SDS011;6120;52.250;8.478;2022-12-18T14:39:03;9.48;;;4.55;;
12112;SDS011;6120;52.250;8.478;2022-12-18T14:41:30;9.85;;;4.85;;
12112;SDS011;6120;52.250;8.478;2022-12-18T14:44:04;9.48;;;4.82;;
12112;SDS011;6120;52.250;8.478;2022-12-18T14:46:33;12.00;;;4.53;;
12112;SDS011;6120;52.250;8.478;2022-12-18T14:49:03;10.55;;;4.82;;
12112;SDS011;6120;52.250;8.478;2022-12-18T14:51:32;11.27;;;4.97;;
12112;SDS011;6120;52.250;8.478;2022-12-18T14:54:00;8.93;;;4.88;;
12112;SDS011;6120;52.250;8.478;2022-12-18T14:56:29;11.75;;;4.68;;
12112;SDS011;6120;52.250;8.478;2022-12-18T14:59:12;11.52;;;4.88;;
12112;SDS011;6120;52.250;8.478;2022-12-18T15:07:12;10.70;;;5.07;;
12112;SDS011;6120;52.250;8.478;2022-12-18T15:10:00;9.52;;;4.55;;
12112;SDS011;6120;52.250;8.478;2022-12-18T15:12:38;9.88;;;4.90;;
12112;SDS011;6120;52.250;8.478;2022-12-18T15:18:04;12.70;;;5.30;;
12112;SDS011;6120;52.250;8.478;2022-12-18T15:23:25;9.75;;;4.47;;
12112;SDS011;6120;52.250;8.478;2022-12-18T15:26:05;9.45;;;4.88;;
12112;SDS011;6120;52.250;8.478;2022-12-18T15:33:44;10.13;;;4.85;;
12112;SDS011;6120;52.250;8.478;2022-12-18T15:36:16;9.10;;;5.00;;
12112;SDS011;6120;52.250;8.478;2022-12-18T15:38:52;8.80;;;4.32;;
12112;SDS011;6120;52.250;8.478;2022-12-18T15:41:21;8.90;;;4.43;;
12112;SDS011;6120;52.250;8.478;2022-12-18T15:43:50;9.23;;;4.30;;
12112;SDS011;6120;52.250;8.478;2022-12-18T15:48:46;10.63;;;4.60;;
12112;SDS011;6120;52.250;8.478;2022-12-18T15:51:18;11.55;;;4.88;;
12112;SDS011;6120;52.250;8.478;2022-12-18T15:53:49;11.20;;;4.75;;
12112;SDS011;6120;52.250;8.478;2022-12-18T15:56:18;10.75;;;4.88;;
12112;SDS011;6120;52.250;8.478;2022-12-18T15:59:07;11.07;;;5.10;;
12112;SDS011;6120;52.250;8.478;2022-12-18T16:01:36;10.00;;;4.47;;
12112;SDS011;6120;52.250;8.478;2022-12-18T16:04:09;11.57;;;4.90;;
12112;SDS011;6120;52.250;8.478;2022-12-18T16:06:37;9.90;;;4.80;;
12112;SDS011;6120;52.250;8.478;2022-12-18T16:09:24;11.10;;;5.28;;
12112;SDS011;6120;52.250;8.478;2022-12-18T16:11:52;11.13;;;5.05;;
12112;SDS011;6120;52.250;8.478;2022-12-18T16:16:47;11.68;;;5.38;;
12112;SDS011;6120;52.250;8.478;2022-12-18T16:19:15;11.98;;;5.75;;
12112;SDS011;6120;52.250;8.478;2022-12-18T16:21:42;10.43;;;4.97;;
12112;SDS011;6120;52.250;8.478;2022-12-18T16:24:31;10.55;;;4.78;;
12112;SDS011;6120;52.250;8.478;2022-12-18T16:26:58;11.75;;;5.15;;
12112;SDS011;6120;52.250;8.478;2022-12-18T16:31:54;12.02;;;4.88;;
12112;SDS011;6120;52.250;8.478;2022-12-18T16:37:02;13.18;;;5.93;;
12112;SDS011;6120;52.250;8.478;2022-12-18T16:39:32;14.90;;;5.78;;
12112;SDS011;6120;52.250;8.478;2022-12-18T16:42:03;10.10;;;5.05;;
12112;SDS011;6120;52.250;8.478;2022-12-18T16:44:32;10.98;;;5.30;;
12112;SDS011;6120;52.250;8.478;2022-12-18T16:46:59;11.65;;;5.25;;
12112;SDS011;6120;52.250;8.478;2022-12-18T16:49:28;11.30;;;5.40;;
12112;SDS011;6120;52.250;8.478;2022-12-18T16:51:55;9.98;;;5.05;;
12112;SDS011;6120;52.250;8.478;2022-12-18T16:54:21;15.18;;;6.22;;
12112;SDS011;6120;52.250;8.478;2022-12-18T16:56:49;11.98;;;5.30;;
12112;SDS011;6120;52.250;8.478;2022-12-18T16:59:16;12.10;;;6.25;;
12112;SDS011;6120;52.250;8.478;2022-12-18T17:01:43;15.77;;;6.55;;
12112;SDS011;6120;52.250;8.478;2022-12-18T17:04:10;12.68;;;5.97;;
12112;SDS011;6120;52.250;8.478;2022-12-18T17:06:40;11.80;;;5.65;;
12112;SDS011;6120;52.250;8.478;2022-12-18T17:09:14;12.18;;;6.10;;
12112;SDS011;6120;52.250;8.478;2022-12-18T17:11:47;12.02;;;6.07;;
12112;SDS011;6120;52.250;8.478;2022-12-18T17:14:15;15.20;;;6.10;;
12112;SDS011;6120;52.250;8.478;2022-12-18T17:16:44;12.32;;;5.75;;
12112;SDS011;6120;52.250;8.478;2022-12-18T17:19:12;13.80;;;6.18;;
12112;SDS011;6120;52.250;8.478;2022-12-18T17:21:43;16.55;;;6.20;;
12112;SDS011;6120;52.250;8.478;2022-12-18T17:24:10;12.90;;;6.00;;
12112;SDS011;6120;52.250;8.478;2022-12-18T17:26:37;12.35;;;6.40;;
12112;SDS011;6120;52.250;8.478;2022-12-18T17:29:03;11.82;;;5.80;;
12112;SDS011;6120;52.250;8.478;2022-12-18T17:31:30;15.13;;;6.60;;
12112;SDS011;6120;52.250;8.478;2022-12-18T17:33:57;13.65;;;6.20;;
12112;SDS011;6120;52.250;8.478;2022-12-18T17:36:24;13.45;;;5.47;;
12112;SDS011;6120;52.250;8.478;2022-12-18T17:38:55;15.02;;;6.65;;
12112;SDS011;6120;52.250;8.478;2022-12-18T17:41:23;18.42;;;7.22;;
12112;SDS011;6120;52.250;8.478;2022-12-18T17:43:58;13.85;;;6.13;;
12112;SDS011;6120;52.250;8.478;2022-12-18T17:46:26;14.85;;;6.43;;
12112;SDS011;6120;52.250;8.478;2022-12-18T17:48:54;14.30;;;6.20;;
12112;SDS011;6120;52.250;8.478;2022-12-18T17:51:21;14.70;;;6.47;;
12112;SDS011;6120;52.250;8.478;2022-12-18T17:53:48;14.38;;;6.30;;
12112;SDS011;6120;52.250;8.478;2022-12-18T17:56:15;15.52;;;6.68;;